Time;durP1;ratioP1;P1;durP2;ratioP2;P2;SDS_P1;SDS_P2;PMS_P1;PMS_P2;Temp;Humidity;BMP_temperature;BMP_pressure;BME280_temperature;BME280_humidity;BME280_pressure;Samples;Min_cycle;Max_cycle;Signal;HPM_P1;HPM_P2
2023/06/08 00:00:56;;;;;;;7.60;4.40;;;;;;;17.18;67.53;101149.48;108392;1262;59685;-70
2023/06/08 00:03:23;;;;;;;8.90;4.70;;;;;;;17.13;67.66;101145.90;108314;1262;74242;-70
2023/06/08 00:05:50;;;;;;;10.40;4.90;;;;;;;17.09;67.83;101150.84;108464;1263;71139;-72
2023/06/08 00:08:17;;;;;;;8.80;4.70;;;;;;;17.04;68.02;101153.69;108456;1259;73613;-70
2023/06/08 00:10:45;;;;;;;9.50;4.30;;;;;;;17.00;68.10;101153.33;108225;1257;63811;-70
2023/06/08 00:13:13;;;;;;;8.80;4.60;;;;;;;16.99;68.21;101152.77;108388;1258;60053;-71
2023/06/08 00:15:40;;;;;;;10.60;4.80;;;;;;;16.99;68.34;101157.77;108240;1257;74616;-71
2023/06/08 00:18:08;;;;;;;9.80;4.70;;;;;;;16.99;68.29;101153.08;108134;1257;71231;-71
2023/06/08 00:20:35;;;;;;;8.40;4.20;;;;;;;17.01;68.46;101152.12;108383;1258;73631;-71
2023/06/08 00:23:05;;;;;;;8.50;4.70;;;;;;;17.03;68.61;101151.17;108368;1263;61041;-70
2023/06/08 00:25:32;;;;;;;9.70;4.50;;;;;;;17.02;68.50;101150.15;108374;1261;58964;-70
2023/06/08 00:27:59;;;;;;;7.70;4.60;;;;;;;17.01;68.34;101154.64;108395;1261;73659;-71
2023/06/08 00:30:26;;;;;;;7.90;4.60;;;;;;;17.00;68.34;101153.11;108303;1263;71101;-71
2023/06/08 00:32:53;;;;;;;10.70;4.80;;;;;;;17.01;68.29;101150.18;108362;1258;71141;-70
2023/06/08 00:35:20;;;;;;;9.50;4.60;;;;;;;17.03;68.26;101151.64;108283;1262;61337;-70
2023/06/08 00:37:46;;;;;;;7.10;4.30;;;;;;;17.05;67.93;101151.17;108371;1257;61544;-70
2023/06/08 00:40:14;;;;;;;8.50;4.90;;;;;;;17.09;67.78;101151.04;108387;1258;74515;-71
2023/06/08 00:42:40;;;;;;;10.60;4.40;;;;;;;17.12;67.60;101150.64;108420;1263;69992;-72
2023/06/08 00:45:10;;;;;;;9.10;4.90;;;;;;;17.15;67.38;101147.75;108340;1262;72032;-70
2023/06/08 00:47:37;;;;;;;10.10;4.50;;;;;;;17.16;67.08;101146.84;108391;1257;60851;-70
2023/06/08 00:50:07;;;;;;;8.10;4.30;;;;;;;17.15;66.84;101144.86;108398;1261;59403;-71
2023/06/08 00:52:34;;;;;;;8.70;4.70;;;;;;;17.14;66.93;101142.01;108389;1257;74342;-71
2023/06/08 00:55:02;;;;;;;9.80;4.30;;;;;;;17.12;66.92;101146.02;108236;1263;70172;-71
2023/06/08 00:57:32;;;;;;;10.30;4.70;;;;;;;17.09;66.80;101141.63;108365;1262;71718;-71
2023/06/08 01:00:04;;;;;;;7.70;4.50;;;;;;;17.05;66.64;101142.19;108322;1262;61122;-70
2023/06/08 01:02:32;;;;;;;8.00;4.60;;;;;;;17.02;66.76;101144.83;108378;1257;59490;-71
2023/06/08 01:05:01;;;;;;;11.40;4.80;;;;;;;17.01;66.78;101140.08;108351;1257;73521;-70
2023/06/08 01:08:08;;;;;;;10.40;4.50;;;;;;;17.01;66.65;101144.09;108309;1262;70933;-70
2023/06/08 01:11:17;;;;;;;10.70;4.60;;;;;;;16.98;66.58;101137.69;108365;1262;73325;-70
2023/06/08 01:13:59;;;;;;;9.00;5.00;;;;;;;16.94;66.64;101136.05;108315;1260;62123;-71
2023/06/08 01:16:32;;;;;;;10.50;5.10;;;;;;;16.92;66.75;101126.55;108367;1258;59567;-71
2023/06/08 01:19:10;;;;;;;8.00;4.50;;;;;;;16.89;66.82;101124.05;108342;1262;72979;-71
2023/06/08 01:21:49;;;;;;;8.10;4.10;;;;;;;16.85;66.88;101127.42;108287;1262;70284;-72
2023/06/08 01:24:19;;;;;;;10.80;4.50;;;;;;;16.84;66.93;101130.14;108385;1261;72773;-71
2023/06/08 01:26:50;;;;;;;9.70;5.10;;;;;;;16.80;66.98;101127.41;108267;1259;62484;-71
2023/06/08 01:29:21;;;;;;;11.00;4.40;;;;;;;16.77;66.97;101122.48;108381;1261;59101;-70
2023/06/08 01:31:48;;;;;;;7.80;4.60;;;;;;;16.76;66.93;101125.66;108336;1259;72336;-71
2023/06/08 01:34:19;;;;;;;7.40;4.20;;;;;;;16.74;66.66;101126.61;108407;1264;69918;-71
2023/06/08 01:36:59;;;;;;;10.50;4.60;;;;;;;16.71;66.38;101124.67;108339;1260;71918;-71
2023/06/08 01:39:49;;;;;;;10.80;4.60;;;;;;;16.66;66.49;101123.43;108413;1260;63711;-70
2023/06/08 01:42:19;;;;;;;10.00;4.20;;;;;;;16.64;66.63;101117.94;108365;1261;59061;-70
2023/06/08 01:45:26;;;;;;;7.50;3.90;;;;;;;16.62;66.47;101113.34;108443;1261;72769;-71
2023/06/08 01:48:01;;;;;;;8.70;4.40;;;;;;;16.60;66.19;101115.22;108043;1267;71298;-71
2023/06/08 01:50:29;;;;;;;7.90;4.30;;;;;;;16.59;66.31;101113.16;108103;1264;72881;-71
2023/06/08 01:52:57;;;;;;;11.50;4.60;;;;;;;16.58;66.29;101111.92;108251;1261;62240;-71
2023/06/08 01:55:24;;;;;;;9.00;4.30;;;;;;;16.54;66.28;101108.04;108367;1260;59832;-72
2023/06/08 01:57:54;;;;;;;10.40;4.70;;;;;;;16.51;66.34;101113.92;108426;1254;73730;-71
2023/06/08 02:00:21;;;;;;;9.60;4.40;;;;;;;16.47;66.35;101113.77;108387;1257;71780;-71
2023/06/08 02:02:48;;;;;;;8.10;4.30;;;;;;;16.44;66.47;101112.93;108485;1257;72799;-69
2023/06/08 02:05:15;;;;;;;9.50;4.40;;;;;;;16.43;66.74;101113.92;108312;1260;61719;-69
2023/06/08 02:07:42;;;;;;;10.50;5.00;;;;;;;16.41;67.13;101110.00;108459;1257;59137;-71
2023/06/08 02:10:10;;;;;;;9.60;4.80;;;;;;;16.38;67.46;101104.89;108290;1258;73981;-71
2023/06/08 02:12:37;;;;;;;11.30;5.00;;;;;;;16.35;67.78;101102.98;108456;1260;70996;-72
2023/06/08 02:15:07;;;;;;;7.40;4.20;;;;;;;16.32;67.97;101104.05;108533;1257;72994;-71
2023/06/08 02:17:35;;;;;;;10.40;4.80;;;;;;;16.26;68.36;101104.73;108504;1261;60831;-71
2023/06/08 02:20:06;;;;;;;9.50;4.20;;;;;;;16.22;68.65;101100.98;108577;1257;59554;-72
2023/06/08 02:22:38;;;;;;;8.90;4.50;;;;;;;16.16;68.99;101101.25;108500;1257;74530;-72
2023/06/08 02:25:07;;;;;;;13.80;5.20;;;;;;;16.11;69.14;101099.30;108526;1257;70615;-71
2023/06/08 02:27:36;;;;;;;8.60;4.60;;;;;;;16.08;69.24;101100.77;108496;1260;70249;-71
2023/06/08 02:30:05;;;;;;;7.90;4.50;;;;;;;16.03;69.36;101099.40;108423;1261;61810;-71
2023/06/08 02:32:33;;;;;;;11.30;4.90;;;;;;;15.95;69.60;101098.42;108419;1257;58528;-71
2023/06/08 02:35:01;;;;;;;9.20;4.70;;;;;;;15.88;69.89;101101.03;108388;1257;73707;-71
2023/06/08 02:37:27;;;;;;;8.60;4.70;;;;;;;15.83;69.98;101098.76;108367;1257;70481;-71
2023/06/08 02:39:54;;;;;;;9.70;4.70;;;;;;;15.79;70.28;101098.06;108472;1257;71118;-71
2023/06/08 02:42:24;;;;;;;10.10;5.00;;;;;;;15.74;70.45;101096.33;108441;1257;60846;-71
2023/06/08 02:44:51;;;;;;;11.10;5.00;;;;;;;15.69;70.88;101096.03;108496;1261;59155;-70
2023/06/08 02:47:19;;;;;;;11.90;5.00;;;;;;;15.63;71.21;101092.78;108366;1257;72648;-71
2023/06/08 02:49:46;;;;;;;10.40;4.90;;;;;;;15.57;71.67;101095.35;108449;1258;68798;-70
2023/06/08 02:52:12;;;;;;;10.30;4.80;;;;;;;15.50;71.62;101097.80;108417;1257;71909;-71
2023/06/08 02:54:40;;;;;;;12.40;5.20;;;;;;;15.44;72.10;101095.90;108457;1258;60904;-71
2023/06/08 02:57:06;;;;;;;10.20;5.20;;;;;;;15.39;72.16;101091.39;108448;1261;59223;-70
2023/06/08 02:59:33;;;;;;;12.30;5.20;;;;;;;15.37;72.42;101087.21;108473;1261;73124;-70
2023/06/08 03:02:01;;;;;;;12.10;5.50;;;;;;;15.34;72.82;101083.21;108302;1260;69667;-72
2023/06/08 03:04:28;;;;;;;10.80;5.10;;;;;;;15.28;73.17;101082.41;108395;1261;72721;-70
2023/06/08 03:06:55;;;;;;;9.60;5.00;;;;;;;15.21;73.71;101083.13;108424;1259;61153;-70
2023/06/08 03:09:23;;;;;;;8.60;4.90;;;;;;;15.14;73.97;101086.76;108463;1259;60436;-72
2023/06/08 03:11:55;;;;;;;10.70;5.20;;;;;;;15.05;74.55;101093.91;108403;1259;74948;-71
2023/06/08 03:14:31;;;;;;;13.10;5.90;;;;;;;14.97;75.14;101094.54;108438;1260;71311;-70
2023/06/08 03:17:03;;;;;;;10.70;5.40;;;;;;;14.94;75.44;101087.77;108480;1258;71537;-69
2023/06/08 03:19:35;;;;;;;11.30;5.20;;;;;;;14.92;75.68;101085.90;108489;1258;61724;-71
2023/06/08 03:22:06;;;;;;;12.10;5.70;;;;;;;14.92;76.04;101085.61;108413;1260;58889;-70
2023/06/08 03:24:36;;;;;;;10.10;5.20;;;;;;;14.90;76.23;101082.81;108323;1257;75455;-70
2023/06/08 03:27:13;;;;;;;11.10;5.50;;;;;;;14.86;76.54;101083.89;108516;1257;71701;-71
2023/06/08 03:29:47;;;;;;;10.50;5.50;;;;;;;14.82;77.31;101086.08;108509;1256;71884;-70
2023/06/08 03:32:21;;;;;;;11.10;5.90;;;;;;;14.78;77.40;101086.48;108354;1257;61042;-71
2023/06/08 03:34:54;;;;;;;14.80;6.10;;;;;;;14.74;77.61;101087.11;107904;1259;61828;-71
2023/06/08 03:37:23;;;;;;;13.50;5.70;;;;;;;14.73;77.86;101089.36;108510;1257;74313;-71
2023/06/08 03:39:50;;;;;;;11.00;5.60;;;;;;;14.75;77.84;101091.84;108480;1257;70197;-71
2023/06/08 03:42:17;;;;;;;13.30;5.70;;;;;;;14.78;77.79;101097.17;108499;1257;72567;-70
2023/06/08 03:44:44;;;;;;;10.20;6.20;;;;;;;14.80;77.80;101101.17;108395;1257;61353;-70
2023/06/08 03:47:12;;;;;;;13.70;5.90;;;;;;;14.80;78.05;101101.66;108421;1257;59506;-72
2023/06/08 03:49:39;;;;;;;12.70;6.00;;;;;;;14.75;78.14;101102.82;108537;1258;72865;-71
2023/06/08 03:52:05;;;;;;;12.40;5.90;;;;;;;14.72;78.21;101096.42;108501;1257;71389;-72
2023/06/08 03:54:32;;;;;;;13.20;6.00;;;;;;;14.74;78.51;101100.46;108439;1260;72188;-72
2023/06/08 03:57:00;;;;;;;12.80;6.00;;;;;;;14.77;78.33;101102.59;108474;1257;61798;-72
2023/06/08 03:59:27;;;;;;;13.00;6.20;;;;;;;14.82;78.43;101109.13;108374;1260;61949;-71
2023/06/08 04:01:56;;;;;;;11.80;6.40;;;;;;;14.82;78.59;101112.90;108357;1257;73993;-70
2023/06/08 04:04:23;;;;;;;13.30;6.80;;;;;;;14.79;78.89;101116.04;108402;1257;70921;-71
2023/06/08 04:06:51;;;;;;;11.90;6.40;;;;;;;14.78;79.10;101106.20;108344;1260;71334;-71
2023/06/08 04:09:18;;;;;;;15.20;6.60;;;;;;;14.75;79.36;101105.93;108297;1257;60559;-72
2023/06/08 04:11:44;;;;;;;18.40;6.90;;;;;;;14.70;79.63;101101.16;108458;1259;59655;-72
2023/06/08 04:14:11;;;;;;;15.00;7.20;;;;;;;14.68;79.63;101091.21;108360;1257;73971;-70
2023/06/08 04:16:41;;;;;;;17.40;6.60;;;;;;;14.73;79.79;101094.58;108493;1257;71118;-71
2023/06/08 04:19:09;;;;;;;15.10;6.90;;;;;;;14.77;80.00;101102.27;108330;1259;72928;-70
2023/06/08 04:21:36;;;;;;;19.30;7.40;;;;;;;14.79;79.77;101097.75;108372;1257;62411;-71
2023/06/08 04:24:04;;;;;;;15.40;6.90;;;;;;;14.80;79.94;101094.89;108457;1259;60465;-71
2023/06/08 04:26:32;;;;;;;20.50;7.00;;;;;;;14.81;79.91;101099.05;108331;1260;74332;-71
2023/06/08 04:29:00;;;;;;;20.10;8.10;;;;;;;14.82;80.10;101099.95;108403;1257;71462;-71
2023/06/08 04:31:28;;;;;;;19.10;7.70;;;;;;;14.80;80.49;101098.50;108431;1260;71470;-72
2023/06/08 04:33:54;;;;;;;18.90;7.40;;;;;;;14.73;80.99;101097.08;108358;1259;60846;-73
2023/06/08 04:36:22;;;;;;;32.50;17.90;;;;;;;14.69;81.82;101102.32;108395;1259;58813;-72
2023/06/08 04:38:51;;;;;;;17.90;7.40;;;;;;;14.74;82.25;101111.21;108413;1259;74021;-73
2023/06/08 04:41:19;;;;;;;22.30;7.60;;;;;;;14.71;81.70;101114.41;108369;1259;72179;-73
2023/06/08 04:43:49;;;;;;;17.20;7.50;;;;;;;14.66;81.94;101114.05;108372;1259;73007;-72
2023/06/08 04:46:16;;;;;;;69.50;43.50;;;;;;;14.62;82.34;101109.11;108274;1259;61499;-72
2023/06/08 04:48:48;;;;;;;107.20;64.70;;;;;;;14.61;82.44;101116.83;108404;1259;59243;-72
2023/06/08 04:51:17;;;;;;;15.70;8.30;;;;;;;14.69;83.29;101117.91;108463;1259;73222;-72
2023/06/08 04:53:44;;;;;;;19.20;8.10;;;;;;;14.72;82.74;101107.55;108376;1259;69751;-72
2023/06/08 04:56:18;;;;;;;19.20;8.30;;;;;;;14.76;82.51;101117.48;108407;1259;74360;-73
2023/06/08 04:58:52;;;;;;;18.20;8.40;;;;;;;14.82;82.40;101120.10;108463;1259;61898;-71
2023/06/08 05:01:21;;;;;;;14.50;7.30;;;;;;;14.92;82.41;101119.80;108486;1259;60188;-71
2023/06/08 05:03:52;;;;;;;16.60;7.90;;;;;;;14.93;81.28;101118.54;108542;1258;73867;-71
2023/06/08 05:06:38;;;;;;;21.20;8.00;;;;;;;14.91;81.06;101121.51;108513;1259;71263;-72
2023/06/08 05:09:18;;;;;;;19.60;8.10;;;;;;;14.90;81.21;101117.04;108215;1258;71441;-71
2023/06/08 05:11:56;;;;;;;15.40;8.00;;;;;;;14.96;81.92;101116.75;108521;1254;60795;-72
2023/06/08 05:14:22;;;;;;;18.90;7.50;;;;;;;15.10;81.76;101117.31;108552;1256;59441;-73
2023/06/08 05:16:49;;;;;;;24.30;8.00;;;;;;;15.14;81.22;101108.96;108566;1256;72616;-71
2023/06/08 05:19:17;;;;;;;18.70;8.00;;;;;;;15.18;80.67;101110.45;108453;1256;68961;-73
2023/06/08 05:21:46;;;;;;;17.30;8.30;;;;;;;15.20;80.42;101111.26;108575;1257;72724;-73
2023/06/08 05:24:18;;;;;;;15.90;8.10;;;;;;;15.24;80.29;101110.38;108524;1257;60747;-72
2023/06/08 05:26:48;;;;;;;16.30;8.20;;;;;;;15.24;80.20;101110.59;108551;1257;58729;-73
2023/06/08 05:29:15;;;;;;;17.00;8.30;;;;;;;15.29;80.13;101103.71;108390;1257;73272;-73
2023/06/08 05:31:42;;;;;;;17.80;7.80;;;;;;;15.32;80.04;101103.31;108383;1256;71244;-73
2023/06/08 05:34:09;;;;;;;19.20;9.00;;;;;;;15.38;80.65;101101.99;108491;1257;73246;-71
2023/06/08 05:36:39;;;;;;;21.80;8.90;;;;;;;15.65;81.39;101095.27;108191;1257;61321;-72
2023/06/08 05:39:06;;;;;;;17.30;8.50;;;;;;;15.88;81.00;101102.85;108565;1257;60353;-71
2023/06/08 05:41:33;;;;;;;25.60;8.80;;;;;;;16.08;79.50;101099.95;108364;1257;73201;-71
2023/06/08 05:44:04;;;;;;;13.70;7.70;;;;;;;16.21;79.42;101099.33;108270;1257;70248;-72
2023/06/08 05:46:40;;;;;;;19.60;8.10;;;;;;;16.39;77.94;101103.85;108220;1257;72035;-72
2023/06/08 05:49:07;;;;;;;18.10;8.10;;;;;;;16.50;77.15;101098.73;107888;1262;61111;-71
2023/06/08 05:51:38;;;;;;;16.30;7.70;;;;;;;16.67;77.35;101099.86;107935;1257;59362;-71
2023/06/08 05:54:12;;;;;;;16.20;7.60;;;;;;;16.81;76.05;101094.93;107737;1257;72730;-72
2023/06/08 05:56:42;;;;;;;14.70;7.00;;;;;;;16.81;75.25;101097.64;107804;1257;70790;-71
2023/06/08 05:59:11;;;;;;;17.20;7.70;;;;;;;16.86;75.12;101096.47;107728;1256;71573;-72
2023/06/08 06:01:37;;;;;;;32.10;19.50;;;;;;;16.86;74.71;101094.61;108884;1257;62525;-72
2023/06/08 06:04:07;;;;;;;29.10;17.50;;;;;;;16.95;75.08;101097.73;108784;1256;59431;-71
2023/06/08 06:06:52;;;;;;;39.70;23.60;;;;;;;17.11;74.36;101095.66;108917;1257;73159;-72
2023/06/08 06:09:18;;;;;;;21.60;8.80;;;;;;;17.24;74.47;101096.80;108896;1257;70606;-72
2023/06/08 06:11:48;;;;;;;19.80;7.70;;;;;;;17.45;73.76;101097.29;108879;1256;72682;-72
2023/06/08 06:14:20;;;;;;;14.50;7.80;;;;;;;17.71;72.98;101100.80;108668;1257;61826;-72
2023/06/08 06:16:48;;;;;;;17.80;7.70;;;;;;;17.77;71.12;101104.89;108679;1256;58854;-72
2023/06/08 06:19:39;;;;;;;17.90;9.20;;;;;;;17.84;71.65;101104.80;108579;1256;73762;-72
2023/06/08 06:22:08;;;;;;;16.30;8.10;;;;;;;17.89;70.38;101102.79;108516;1257;69927;-72
2023/06/08 06:24:36;;;;;;;18.50;9.00;;;;;;;17.82;70.60;101100.30;108508;1257;74191;-73
2023/06/08 06:27:16;;;;;;;14.80;8.30;;;;;;;17.90;70.35;101104.55;108258;1257;60453;-75
2023/06/08 06:29:48;;;;;;;15.30;7.90;;;;;;;17.84;70.13;101106.11;107792;1257;60351;-74
2023/06/08 06:32:20;;;;;;;14.10;8.20;;;;;;;17.83;70.43;101108.00;107664;1259;74332;-74
2023/06/08 06:34:48;;;;;;;19.80;9.50;;;;;;;17.82;70.39;101110.15;107723;1257;69737;-74
2023/06/08 06:37:18;;;;;;;12.30;8.00;;;;;;;17.80;70.70;101112.70;107919;1256;73769;-74
2023/06/08 06:39:44;;;;;;;15.70;8.40;;;;;;;17.81;70.73;101112.04;107757;1257;60640;-75
2023/06/08 06:42:11;;;;;;;16.10;8.70;;;;;;;17.80;70.84;101103.07;107911;1257;59912;-75
2023/06/08 06:44:49;;;;;;;17.80;8.60;;;;;;;17.84;71.03;101105.10;107974;1256;74137;-75
2023/06/08 06:47:21;;;;;;;17.00;8.50;;;;;;;17.89;70.94;101111.58;107783;1259;71419;-75
2023/06/08 06:49:49;;;;;;;16.60;8.40;;;;;;;17.94;70.99;101105.14;108006;1257;72223;-73
2023/06/08 06:52:22;;;;;;;16.00;9.10;;;;;;;18.01;71.00;101108.13;108074;1257;60904;-73
2023/06/08 06:55:06;;;;;;;21.70;8.80;;;;;;;18.01;70.66;101108.30;108126;1257;59107;-75
2023/06/08 06:57:42;;;;;;;17.20;9.00;;;;;;;17.97;70.77;101114.33;107466;1262;72273;-75
2023/06/08 07:00:10;;;;;;;19.90;9.00;;;;;;;17.86;70.76;101116.98;107511;1262;70993;-73
2023/06/08 07:02:37;;;;;;;19.30;11.90;;;;;;;17.77;71.35;101117.61;107542;1258;72003;-74
2023/06/08 07:05:05;;;;;;;17.00;8.80;;;;;;;17.72;71.53;101117.75;107576;1259;60274;-74
2023/06/08 07:07:32;;;;;;;19.00;9.00;;;;;;;17.73;71.67;101117.62;107452;1262;60865;-73
2023/06/08 07:09:59;;;;;;;20.40;9.20;;;;;;;17.76;71.60;101116.72;107484;1259;75865;-73
2023/06/08 07:12:28;;;;;;;18.80;9.10;;;;;;;17.83;71.99;101119.10;107707;1259;72069;-73
2023/06/08 07:14:55;;;;;;;15.20;8.80;;;;;;;18.05;72.06;101119.63;107689;1258;72054;-75
2023/06/08 07:17:22;;;;;;;17.20;8.90;;;;;;;18.25;71.05;101118.09;107675;1258;58214;-73
2023/06/08 07:19:53;;;;;;;15.90;8.50;;;;;;;18.40;70.82;101116.80;107663;1262;58690;-73
2023/06/08 07:22:20;;;;;;;16.70;9.10;;;;;;;18.54;70.32;101117.69;107616;1264;73396;-73
2023/06/08 07:25:10;;;;;;;19.40;9.60;;;;;;;18.59;69.84;101117.04;107704;1259;72923;-73
2023/06/08 07:27:57;;;;;;;17.70;9.30;;;;;;;18.68;70.24;101118.00;107819;1258;71076;-73
2023/06/08 07:30:34;;;;;;;18.30;8.90;;;;;;;18.86;69.94;101111.73;107898;1258;60898;-73
2023/06/08 07:33:06;;;;;;;15.00;8.10;;;;;;;19.00;69.73;101107.80;107900;1258;59662;-73
2023/06/08 07:35:36;;;;;;;19.00;8.60;;;;;;;19.21;69.50;101106.82;107959;1258;73605;-73
2023/06/08 07:38:08;;;;;;;35.10;11.50;;;;;;;19.45;68.84;101112.86;108010;1259;70930;-72
2023/06/08 07:40:38;;;;;;;20.10;8.50;;;;;;;19.62;68.20;101113.95;108353;1258;73004;-72
2023/06/08 07:43:10;;;;;;;21.20;9.30;;;;;;;19.76;67.95;101115.51;108059;1259;60974;-73
2023/06/08 07:45:41;;;;;;;15.70;8.10;;;;;;;19.99;67.44;101111.08;107899;1253;192646;-48
2023/06/08 07:48:08;;;;;;;14.90;8.20;;;;;;;20.14;66.86;101114.13;108742;1257;75758;-49
2023/06/08 07:50:35;;;;;;;12.10;7.90;;;;;;;20.25;66.04;101112.32;108839;1257;69989;-50
2023/06/08 07:53:01;;;;;;;14.50;7.50;;;;;;;20.31;65.44;101113.39;108853;1257;71525;-48
2023/06/08 07:55:28;;;;;;;18.20;9.30;;;;;;;20.37;65.47;101115.06;108827;1257;60218;-51
2023/06/08 07:57:54;;;;;;;16.70;7.80;;;;;;;20.45;65.15;101112.73;108838;1257;58084;-50
2023/06/08 08:00:21;;;;;;;17.30;8.30;;;;;;;20.49;65.00;101115.42;108859;1257;58217;-49
2023/06/08 08:02:48;;;;;;;23.60;9.60;;;;;;;20.49;64.65;101108.20;108840;1259;69734;-50
2023/06/08 08:05:14;;;;;;;17.90;7.70;;;;;;;20.49;64.11;101111.48;108831;1259;71520;-49
2023/06/08 08:07:41;;;;;;;18.80;8.70;;;;;;;20.49;64.30;101110.02;108820;1259;58168;-50
2023/06/08 08:10:08;;;;;;;17.10;7.80;;;;;;;20.50;64.14;101110.86;108809;1259;58472;-49
2023/06/08 08:12:35;;;;;;;18.60;8.30;;;;;;;20.49;64.49;101112.27;108825;1259;73929;-50
2023/06/08 08:15:01;;;;;;;15.50;8.70;;;;;;;20.49;64.09;101108.27;108856;1259;70002;-46
2023/06/08 08:17:28;;;;;;;20.20;10.70;;;;;;;20.47;63.80;101110.45;108824;1259;71893;-45
2023/06/08 08:25:43;;;;;;;15.10;8.50;;;;;;;20.65;64.11;101111.38;103712;1264;1070406;-70
2023/06/08 08:28:23;;;;;;;14.60;8.20;;;;;;;20.72;63.63;101110.48;108232;1265;70359;-72
2023/06/08 08:30:56;;;;;;;13.60;7.20;;;;;;;20.84;63.44;101106.72;108318;1263;71145;-72
2023/06/08 08:33:26;;;;;;;47.70;34.50;;;;;;;20.90;62.88;101106.05;108444;1263;61761;-71
2023/06/08 08:35:53;;;;;;;29.20;16.00;;;;;;;20.93;63.04;101102.63;108552;1262;60497;-72
2023/06/08 08:38:20;;;;;;;64.00;47.50;;;;;;;20.99;62.85;101098.98;108438;1263;72687;-71
2023/06/08 08:40:50;;;;;;;65.60;41.00;;;;;;;21.08;63.03;101100.48;108436;1263;69023;-71
2023/06/08 08:43:26;;;;;;;17.80;10.00;;;;;;;21.24;62.65;101096.42;108380;1264;73899;-71
2023/06/08 08:45:56;;;;;;;40.50;26.40;;;;;;;21.31;62.21;101098.02;108516;1263;61997;-72
2023/06/08 08:48:25;;;;;;;41.50;27.40;;;;;;;21.43;62.29;101098.52;108478;1263;61181;-73
2023/06/08 08:50:53;;;;;;;11.50;7.30;;;;;;;21.51;61.51;101101.39;108456;1264;72703;-71
2023/06/08 08:53:27;;;;;;;18.60;11.80;;;;;;;21.51;61.39;101098.48;108484;1264;70640;-73
2023/06/08 08:55:55;;;;;;;24.70;10.20;;;;;;;21.65;61.65;101098.17;108521;1264;72768;-72
2023/06/08 08:58:23;;;;;;;41.50;28.20;;;;;;;21.84;61.46;101091.11;108386;1264;60787;-73
2023/06/08 09:00:50;;;;;;;23.80;14.90;;;;;;;22.03;61.10;101095.61;108447;1264;60233;-72
2023/06/08 09:03:18;;;;;;;13.90;7.80;;;;;;;22.13;60.63;101090.78;108474;1264;73605;-71
2023/06/08 09:05:45;;;;;;;18.70;10.20;;;;;;;22.16;60.17;101092.23;108490;1264;70347;-72
2023/06/08 09:08:12;;;;;;;20.40;11.70;;;;;;;22.23;60.35;101093.20;108427;1263;72391;-72
2023/06/08 09:10:40;;;;;;;16.00;7.10;;;;;;;22.29;60.13;101092.13;108571;1263;62299;-72
2023/06/08 09:13:07;;;;;;;11.90;7.30;;;;;;;22.39;60.68;101094.20;108465;1263;59315;-72
2023/06/08 09:15:37;;;;;;;14.10;6.90;;;;;;;22.54;60.08;101095.14;108475;1264;72628;-71
2023/06/08 09:18:18;;;;;;;12.30;6.80;;;;;;;22.66;58.90;101097.39;108436;1263;70788;-72
2023/06/08 09:20:45;;;;;;;21.70;13.30;;;;;;;22.78;58.59;101098.79;108471;1264;72270;-71
2023/06/08 09:23:18;;;;;;;13.10;7.10;;;;;;;22.89;58.13;101102.69;108378;1263;60406;-72
2023/06/08 09:25:46;;;;;;;16.80;9.80;;;;;;;23.01;57.86;101100.71;107636;1264;58967;-72
2023/06/08 09:28:15;;;;;;;13.90;7.20;;;;;;;23.15;57.66;101103.64;107699;1264;72344;-72
2023/06/08 09:30:48;;;;;;;21.60;7.80;;;;;;;23.25;57.34;101104.96;107756;1263;69928;-72
2023/06/08 09:33:26;;;;;;;12.30;7.00;;;;;;;23.31;56.90;101102.52;107661;1269;71661;-73
2023/06/08 09:35:56;;;;;;;11.00;7.10;;;;;;;23.40;56.71;101097.21;107824;1263;60369;-73
2023/06/08 09:38:32;;;;;;;16.40;9.00;;;;;;;23.44;56.71;101095.44;107824;1264;59171;-72
2023/06/08 09:41:16;;;;;;;20.90;12.90;;;;;;;23.47;56.23;101099.42;107786;1264;73836;-72
2023/06/08 09:43:45;;;;;;;15.60;8.00;;;;;;;23.50;55.92;101097.16;107780;1265;70087;-72
2023/06/08 09:46:16;;;;;;;10.30;7.10;;;;;;;23.60;55.85;101095.73;107843;1264;71800;-72
2023/06/08 09:48:53;;;;;;;13.50;6.80;;;;;;;23.73;56.01;101091.29;107882;1264;58501;-74
2023/06/08 09:51:23;;;;;;;374.10;267.40;;;;;;;23.95;55.92;101085.98;107866;1264;59524;-74
2023/06/08 09:53:58;;;;;;;12.20;7.50;;;;;;;24.20;55.69;101079.60;107857;1265;72458;-72
2023/06/08 09:56:26;;;;;;;14.30;7.40;;;;;;;24.38;54.69;101082.33;107841;1264;70060;-73
2023/06/08 09:58:58;;;;;;;12.10;6.50;;;;;;;24.41;54.03;101083.16;107744;1264;72404;-73
2023/06/08 10:02:08;;;;;;;12.60;7.10;;;;;;;24.44;53.56;101080.38;107505;1260;60417;-74
2023/06/08 10:04:41;;;;;;;13.00;6.90;;;;;;;24.51;53.04;101087.40;107615;1264;60694;-74
2023/06/08 10:07:17;;;;;;;12.30;6.60;;;;;;;24.46;52.65;101083.90;107606;1264;71853;-72
2023/06/08 10:09:49;;;;;;;11.10;6.80;;;;;;;24.45;52.95;101081.25;107688;1263;71217;-74
2023/06/08 10:12:16;;;;;;;22.10;12.90;;;;;;;24.52;52.98;101084.15;107770;1264;72659;-74
2023/06/08 10:14:46;;;;;;;14.80;7.70;;;;;;;24.55;52.77;101082.45;107579;1264;59247;-72
2023/06/08 10:17:17;;;;;;;16.80;9.90;;;;;;;24.55;52.64;101086.41;107674;1264;59817;-73
2023/06/08 10:19:53;;;;;;;12.80;6.80;;;;;;;24.51;52.78;101087.89;107819;1262;73318;-72
2023/06/08 10:22:20;;;;;;;11.90;7.20;;;;;;;24.43;52.83;101084.48;107470;1263;69761;-73
2023/06/08 10:24:48;;;;;;;12.20;7.30;;;;;;;24.40;53.21;101085.92;107509;1267;71616;-73
2023/06/08 10:27:33;;;;;;;16.20;8.80;;;;;;;24.38;53.11;101084.27;107577;1264;60543;-74
2023/06/08 10:30:03;;;;;;;12.50;7.40;;;;;;;24.37;53.41;101082.21;107416;1264;58913;-74
2023/06/08 10:32:31;;;;;;;15.10;7.60;;;;;;;24.35;52.93;101085.33;107544;1265;74068;-73
2023/06/08 10:35:01;;;;;;;15.30;7.80;;;;;;;24.33;52.66;101079.67;107570;1264;71835;-73
2023/06/08 10:37:29;;;;;;;12.00;6.80;;;;;;;24.36;52.68;101077.91;107586;1264;72323;-73
2023/06/08 10:39:57;;;;;;;13.80;7.60;;;;;;;24.41;52.51;101076.33;107560;1264;60132;-72
2023/06/08 10:42:26;;;;;;;10.20;7.00;;;;;;;24.45;52.40;101073.50;107443;1264;59351;-72
2023/06/08 10:44:57;;;;;;;13.90;7.10;;;;;;;24.48;51.76;101067.62;107506;1264;74930;-73
2023/06/08 10:47:31;;;;;;;16.10;8.00;;;;;;;24.43;51.11;101063.91;107539;1264;69793;-72
2023/06/08 10:50:05;;;;;;;13.40;7.20;;;;;;;24.44;51.10;101060.30;107688;1262;71629;-73
2023/06/08 10:52:45;;;;;;;17.80;7.40;;;;;;;24.50;51.45;101059.89;107699;1263;59766;-72
2023/06/08 10:55:14;;;;;;;17.30;7.60;;;;;;;24.53;51.36;101059.48;106699;1263;1223288;-73
2023/06/08 10:57:45;;;;;;;17.30;8.40;;;;;;;24.48;51.51;101058.34;107516;1264;73145;-73
2023/06/08 11:00:26;;;;;;;16.80;8.60;;;;;;;24.47;51.84;101055.61;107559;1264;70904;-74
2023/06/08 11:03:07;;;;;;;21.00;8.30;;;;;;;24.49;52.29;101053.54;107576;1264;71551;-73
2023/06/08 11:05:35;;;;;;;13.10;7.80;;;;;;;24.53;52.22;101050.96;107618;1264;61323;-73
2023/06/08 11:08:04;;;;;;;15.90;8.40;;;;;;;24.58;51.29;101053.11;107663;1263;58667;-73
2023/06/08 11:10:32;;;;;;;13.50;7.40;;;;;;;24.62;51.16;101050.55;107774;1263;72413;-73
2023/06/08 11:13:07;;;;;;;21.50;9.60;;;;;;;24.69;51.26;101049.61;107660;1266;69629;-73
2023/06/08 11:15:38;;;;;;;16.90;7.10;;;;;;;24.83;50.88;101047.11;107591;1263;71810;-73
2023/06/08 11:18:07;;;;;;;15.00;7.40;;;;;;;24.90;51.07;101044.55;107532;1264;59618;-73
2023/06/08 11:20:37;;;;;;;12.80;7.00;;;;;;;24.94;50.57;101046.31;107419;1265;58814;-74
2023/06/08 11:23:10;;;;;;;19.50;10.90;;;;;;;24.97;49.97;101043.18;107589;1263;73245;-74
2023/06/08 11:25:38;;;;;;;18.40;8.40;;;;;;;25.09;49.79;101039.44;107410;1264;71202;-74
2023/06/08 11:28:10;;;;;;;14.70;6.80;;;;;;;25.36;49.67;101037.27;107465;1264;70623;-74
2023/06/08 11:30:37;;;;;;;13.10;7.60;;;;;;;25.67;48.04;101030.89;107516;1265;60274;-74